sensor_id;sensor_type;location;lat;lon;timestamp;P1;durP1;ratioP1;P2;durP2;ratioP2
14373;SDS011;7270;49.004;12.066;2023-06-14T00:02:00;1.10;;;1.10;;
14373;SDS011;7270;49.004;12.066;2023-06-14T00:04:26;1.10;;;1.10;;
14373;SDS011;7270;49.004;12.066;2023-06-14T00:06:53;0.90;;;0.90;;
14373;SDS011;7270;49.004;12.066;2023-06-14T00:09:21;1.10;;;1.10;;
14373;SDS011;7270;49.004;12.066;2023-06-14T00:11:48;1.00;;;1.00;;
14373;SDS011;7270;49.004;12.066;2023-06-14T00:14:14;1.00;;;1.00;;
14373;SDS011;7270;49.004;12.066;2023-06-14T00:16:42;1.00;;;1.00;;
14373;SDS011;7270;49.004;12.066;2023-06-14T00:19:08;1.00;;;1.00;;
14373;SDS011;7270;49.004;12.066;2023-06-14T00:21:35;1.10;;;1.10;;
14373;SDS011;7270;49.004;12.066;2023-06-14T00:24:01;1.10;;;1.10;;
14373;SDS011;7270;49.004;12.066;2023-06-14T00:26:28;1.10;;;1.10;;
14373;SDS011;7270;49.004;12.066;2023-06-14T00:28:54;1.10;;;1.10;;
14373;SDS011;7270;49.004;12.066;2023-06-14T00:31:21;1.00;;;1.00;;
14373;SDS011;7270;49.004;12.066;2023-06-14T00:33:49;1.07;;;1.07;;
14373;SDS011;7270;49.004;12.066;2023-06-14T00:36:15;1.00;;;1.00;;
14373;SDS011;7270;49.004;12.066;2023-06-14T00:38:42;1.03;;;1.03;;
14373;SDS011;7270;49.004;12.066;2023-06-14T00:41:08;1.00;;;1.00;;
14373;SDS011;7270;49.004;12.066;2023-06-14T00:43:34;1.00;;;1.00;;
14373;SDS011;7270;49.004;12.066;2023-06-14T00:46:01;1.00;;;1.00;;
14373;SDS011;7270;49.004;12.066;2023-06-14T00:48:27;0.80;;;0.80;;
14373;SDS011;7270;49.004;12.066;2023-06-14T00:50:55;1.00;;;1.00;;
14373;SDS011;7270;49.004;12.066;2023-06-14T00:53:22;1.00;;;1.00;;
14373;SDS011;7270;49.004;12.066;2023-06-14T00:55:50;1.10;;;1.10;;
14373;SDS011;7270;49.004;12.066;2023-06-14T00:58:16;1.00;;;1.00;;
14373;SDS011;7270;49.004;12.066;2023-06-14T01:00:43;1.00;;;1.00;;
14373;SDS011;7270;49.004;12.066;2023-06-14T01:03:09;1.00;;;1.00;;
14373;SDS011;7270;49.004;12.066;2023-06-14T01:05:37;0.90;;;0.90;;
14373;SDS011;7270;49.004;12.066;2023-06-14T01:08:10;1.10;;;1.10;;
14373;SDS011;7270;49.004;12.066;2023-06-14T01:10:40;1.00;;;1.00;;
14373;SDS011;7270;49.004;12.066;2023-06-14T01:13:11;1.00;;;1.00;;
14373;SDS011;7270;49.004;12.066;2023-06-14T01:15:38;1.00;;;1.00;;
14373;SDS011;7270;49.004;12.066;2023-06-14T01:18:05;1.00;;;1.00;;
14373;SDS011;7270;49.004;12.066;2023-06-14T01:20:33;0.80;;;0.80;;
14373;SDS011;7270;49.004;12.066;2023-06-14T01:23:03;1.10;;;1.10;;
14373;SDS011;7270;49.004;12.066;2023-06-14T01:25:29;0.97;;;0.97;;
14373;SDS011;7270;49.004;12.066;2023-06-14T01:27:57;1.03;;;1.03;;
14373;SDS011;7270;49.004;12.066;2023-06-14T01:30:23;1.00;;;1.00;;
14373;SDS011;7270;49.004;12.066;2023-06-14T01:32:51;1.00;;;1.00;;
14373;SDS011;7270;49.004;12.066;2023-06-14T01:35:18;1.00;;;1.00;;
14373;SDS011;7270;49.004;12.066;2023-06-14T01:37:45;0.90;;;0.90;;
14373;SDS011;7270;49.004;12.066;2023-06-14T01:40:13;1.00;;;1.00;;
14373;SDS011;7270;49.004;12.066;2023-06-14T01:42:40;1.00;;;1.00;;
14373;SDS011;7270;49.004;12.066;2023-06-14T01:45:07;1.00;;;1.00;;
14373;SDS011;7270;49.004;12.066;2023-06-14T01:47:34;0.93;;;0.93;;
14373;SDS011;7270;49.004;12.066;2023-06-14T01:50:01;1.00;;;1.00;;
14373;SDS011;7270;49.004;12.066;2023-06-14T01:52:28;1.00;;;1.00;;
14373;SDS011;7270;49.004;12.066;2023-06-14T01:54:54;1.00;;;1.00;;
14373;SDS011;7270;49.004;12.066;2023-06-14T01:57:21;0.97;;;0.97;;
14373;SDS011;7270;49.004;12.066;2023-06-14T01:59:48;1.00;;;1.00;;
14373;SDS011;7270;49.004;12.066;2023-06-14T02:02:14;1.00;;;1.00;;
14373;SDS011;7270;49.004;12.066;2023-06-14T02:04:41;0.90;;;0.90;;
14373;SDS011;7270;49.004;12.066;2023-06-14T02:07:07;1.00;;;1.00;;
14373;SDS011;7270;49.004;12.066;2023-06-14T02:09:34;1.00;;;1.00;;
14373;SDS011;7270;49.004;12.066;2023-06-14T02:12:00;0.90;;;0.90;;
14373;SDS011;7270;49.004;12.066;2023-06-14T02:14:28;1.00;;;1.00;;
14373;SDS011;7270;49.004;12.066;2023-06-14T02:16:55;1.00;;;1.00;;
14373;SDS011;7270;49.004;12.066;2023-06-14T02:19:21;0.80;;;0.80;;
14373;SDS011;7270;49.004;12.066;2023-06-14T02:21:47;1.00;;;1.00;;
14373;SDS011;7270;49.004;12.066;2023-06-14T02:24:13;0.90;;;0.90;;
14373;SDS011;7270;49.004;12.066;2023-06-14T02:26:40;1.00;;;1.00;;
14373;SDS011;7270;49.004;12.066;2023-06-14T02:29:07;0.90;;;0.90;;
14373;SDS011;7270;49.004;12.066;2023-06-14T02:31:37;0.90;;;0.90;;
14373;SDS011;7270;49.004;12.066;2023-06-14T02:34:04;0.90;;;0.90;;
14373;SDS011;7270;49.004;12.066;2023-06-14T02:36:33;1.00;;;1.00;;
14373;SDS011;7270;49.004;12.066;2023-06-14T02:38:59;0.90;;;0.90;;
14373;SDS011;7270;49.004;12.066;2023-06-14T02:41:26;1.00;;;1.00;;
14373;SDS011;7270;49.004;12.066;2023-06-14T02:43:52;0.90;;;0.90;;
14373;SDS011;7270;49.004;12.066;2023-06-14T02:46:19;1.00;;;1.00;;
14373;SDS011;7270;49.004;12.066;2023-06-14T02:48:46;1.00;;;1.00;;
14373;SDS011;7270;49.004;12.066;2023-06-14T02:51:13;0.90;;;0.90;;
14373;SDS011;7270;49.004;12.066;2023-06-14T02:53:39;0.90;;;0.90;;
14373;SDS011;7270;49.004;12.066;2023-06-14T02:56:05;0.90;;;0.90;;
14373;SDS011;7270;49.004;12.066;2023-06-14T02:58:31;0.90;;;0.90;;
14373;SDS011;7270;49.004;12.066;2023-06-14T03:00:58;0.90;;;0.90;;
14373;SDS011;7270;49.004;12.066;2023-06-14T03:03:28;1.00;;;1.00;;
14373;SDS011;7270;49.004;12.066;2023-06-14T03:05:56;0.97;;;0.97;;
14373;SDS011;7270;49.004;12.066;2023-06-14T03:08:22;0.90;;;0.90;;
14373;SDS011;7270;49.004;12.066;2023-06-14T03:10:52;0.90;;;0.90;;
14373;SDS011;7270;49.004;12.066;2023-06-14T03:13:18;0.90;;;0.90;;
14373;SDS011;7270;49.004;12.066;2023-06-14T03:15:46;0.90;;;0.90;;
14373;SDS011;7270;49.004;12.066;2023-06-14T03:18:12;1.00;;;1.00;;
14373;SDS011;7270;49.004;12.066;2023-06-14T03:20:40;1.00;;;1.00;;
14373;SDS011;7270;49.004;12.066;2023-06-14T03:23:09;1.00;;;1.00;;
14373;SDS011;7270;49.004;12.066;2023-06-14T03:25:35;0.90;;;0.90;;
14373;SDS011;7270;49.004;12.066;2023-06-14T03:28:03;1.00;;;1.00;;
14373;SDS011;7270;49.004;12.066;2023-06-14T03:30:30;0.90;;;0.90;;
14373;SDS011;7270;49.004;12.066;2023-06-14T03:33:01;1.00;;;1.00;;
14373;SDS011;7270;49.004;12.066;2023-06-14T03:35:28;1.00;;;1.00;;
14373;SDS011;7270;49.004;12.066;2023-06-14T03:37:54;1.00;;;1.00;;
14373;SDS011;7270;49.004;12.066;2023-06-14T03:40:22;0.90;;;0.90;;
14373;SDS011;7270;49.004;12.066;2023-06-14T03:42:50;1.00;;;1.00;;
14373;SDS011;7270;49.004;12.066;2023-06-14T03:45:17;0.90;;;0.90;;
14373;SDS011;7270;49.004;12.066;2023-06-14T03:47:43;0.93;;;0.93;;
14373;SDS011;7270;49.004;12.066;2023-06-14T03:50:10;0.97;;;0.97;;
14373;SDS011;7270;49.004;12.066;2023-06-14T03:52:36;1.00;;;1.00;;
14373;SDS011;7270;49.004;12.066;2023-06-14T03:55:03;0.90;;;0.90;;
14373;SDS011;7270;49.004;12.066;2023-06-14T03:57:30;1.00;;;1.00;;
14373;SDS011;7270;49.004;12.066;2023-06-14T03:59:57;0.90;;;0.90;;
14373;SDS011;7270;49.004;12.066;2023-06-14T04:02:23;0.90;;;0.90;;
14373;SDS011;7270;49.004;12.066;2023-06-14T04:04:50;1.00;;;1.00;;
14373;SDS011;7270;49.004;12.066;2023-06-14T04:07:16;1.00;;;1.00;;
14373;SDS011;7270;49.004;12.066;2023-06-14T04:09:44;1.00;;;1.00;;
14373;SDS011;7270;49.004;12.066;2023-06-14T04:12:10;1.00;;;1.00;;
14373;SDS011;7270;49.004;12.066;2023-06-14T04:14:38;1.00;;;1.00;;
14373;SDS011;7270;49.004;12.066;2023-06-14T04:17:05;0.87;;;0.87;;
14373;SDS011;7270;49.004;12.066;2023-06-14T04:19:31;0.90;;;0.90;;
14373;SDS011;7270;49.004;12.066;2023-06-14T04:24:28;0.80;;;0.80;;
14373;SDS011;7270;49.004;12.066;2023-06-14T04:26:57;1.00;;;1.00;;
14373;SDS011;7270;49.004;12.066;2023-06-14T04:29:24;1.10;;;1.10;;
14373;SDS011;7270;49.004;12.066;2023-06-14T04:31:53;1.00;;;1.00;;
14373;SDS011;7270;49.004;12.066;2023-06-14T04:34:23;0.80;;;0.80;;
14373;SDS011;7270;49.004;12.066;2023-06-14T04:36:54;1.00;;;1.00;;
14373;SDS011;7270;49.004;12.066;2023-06-14T04:39:21;0.90;;;0.90;;
14373;SDS011;7270;49.004;12.066;2023-06-14T04:41:47;0.90;;;0.90;;
14373;SDS011;7270;49.004;12.066;2023-06-14T04:44:16;1.00;;;1.00;;
14373;SDS011;7270;49.004;12.066;2023-06-14T04:46:43;1.00;;;1.00;;
14373;SDS011;7270;49.004;12.066;2023-06-14T04:49:12;1.10;;;1.10;;
14373;SDS011;7270;49.004;12.066;2023-06-14T04:51:40;0.90;;;0.90;;
14373;SDS011;7270;49.004;12.066;2023-06-14T04:54:07;1.00;;;1.00;;
14373;SDS011;7270;49.004;12.066;2023-06-14T04:56:35;0.87;;;0.87;;
14373;SDS011;7270;49.004;12.066;2023-06-14T04:59:02;1.00;;;1.00;;
14373;SDS011;7270;49.004;12.066;2023-06-14T05:01:29;1.00;;;1.00;;
14373;SDS011;7270;49.004;12.066;2023-06-14T05:03:56;1.00;;;1.00;;
14373;SDS011;7270;49.004;12.066;2023-06-14T05:06:24;0.90;;;0.90;;
14373;SDS011;7270;49.004;12.066;2023-06-14T05:08:51;1.00;;;1.00;;
14373;SDS011;7270;49.004;12.066;2023-06-14T05:11:17;0.90;;;0.90;;
14373;SDS011;7270;49.004;12.066;2023-06-14T05:13:44;0.90;;;0.90;;
14373;SDS011;7270;49.004;12.066;2023-06-14T05:16:10;0.90;;;0.90;;
14373;SDS011;7270;49.004;12.066;2023-06-14T05:18:37;1.10;;;1.10;;
14373;SDS011;7270;49.004;12.066;2023-06-14T05:21:05;1.07;;;1.07;;
14373;SDS011;7270;49.004;12.066;2023-06-14T05:23:33;1.00;;;1.00;;
14373;SDS011;7270;49.004;12.066;2023-06-14T05:25:59;1.10;;;1.10;;
14373;SDS011;7270;49.004;12.066;2023-06-14T05:28:27;1.10;;;1.10;;
14373;SDS011;7270;49.004;12.066;2023-06-14T05:30:54;1.00;;;1.00;;
14373;SDS011;7270;49.004;12.066;2023-06-14T05:33:20;1.10;;;1.10;;
14373;SDS011;7270;49.004;12.066;2023-06-14T05:35:46;1.07;;;1.07;;
14373;SDS011;7270;49.004;12.066;2023-06-14T05:38:13;1.10;;;1.10;;
14373;SDS011;7270;49.004;12.066;2023-06-14T05:40:41;1.10;;;1.10;;
14373;SDS011;7270;49.004;12.066;2023-06-14T05:43:08;1.00;;;1.00;;
14373;SDS011;7270;49.004;12.066;2023-06-14T05:45:35;1.00;;;1.00;;
14373;SDS011;7270;49.004;12.066;2023-06-14T05:48:01;1.13;;;1.13;;
14373;SDS011;7270;49.004;12.066;2023-06-14T05:50:29;1.10;;;1.10;;
14373;SDS011;7270;49.004;12.066;2023-06-14T05:52:55;0.87;;;0.87;;
14373;SDS011;7270;49.004;12.066;2023-06-14T05:55:21;1.00;;;1.00;;
14373;SDS011;7270;49.004;12.066;2023-06-14T05:57:49;1.07;;;1.07;;
14373;SDS011;7270;49.004;12.066;2023-06-14T06:00:16;1.10;;;1.10;;
14373;SDS011;7270;49.004;12.066;2023-06-14T06:02:45;1.00;;;1.00;;
14373;SDS011;7270;49.004;12.066;2023-06-14T06:05:13;1.10;;;1.10;;
14373;SDS011;7270;49.004;12.066;2023-06-14T06:07:40;1.00;;;1.00;;
14373;SDS011;7270;49.004;12.066;2023-06-14T06:10:08;1.10;;;1.10;;
14373;SDS011;7270;49.004;12.066;2023-06-14T06:12:34;1.10;;;1.10;;
14373;SDS011;7270;49.004;12.066;2023-06-14T06:15:02;1.10;;;1.10;;
14373;SDS011;7270;49.004;12.066;2023-06-14T06:17:29;1.10;;;1.10;;
14373;SDS011;7270;49.004;12.066;2023-06-14T06:19:55;1.10;;;1.10;;
14373;SDS011;7270;49.004;12.066;2023-06-14T06:22:21;1.00;;;1.00;;
14373;SDS011;7270;49.004;12.066;2023-06-14T06:24:47;1.10;;;1.10;;
14373;SDS011;7270;49.004;12.066;2023-06-14T06:27:14;1.10;;;1.10;;
14373;SDS011;7270;49.004;12.066;2023-06-14T06:29:41;1.03;;;1.03;;
14373;SDS011;7270;49.004;12.066;2023-06-14T06:32:09;1.00;;;1.00;;
14373;SDS011;7270;49.004;12.066;2023-06-14T06:34:35;1.20;;;1.20;;
14373;SDS011;7270;49.004;12.066;2023-06-14T06:37:02;1.20;;;1.20;;
14373;SDS011;7270;49.004;12.066;2023-06-14T06:39:28;1.10;;;1.10;;
14373;SDS011;7270;49.004;12.066;2023-06-14T06:41:55;1.10;;;1.10;;
14373;SDS011;7270;49.004;12.066;2023-06-14T06:44:21;1.20;;;1.20;;
14373;SDS011;7270;49.004;12.066;2023-06-14T06:46:47;1.10;;;1.10;;
14373;SDS011;7270;49.004;12.066;2023-06-14T06:49:15;1.10;;;1.10;;
14373;SDS011;7270;49.004;12.066;2023-06-14T06:51:41;1.30;;;1.20;;
14373;SDS011;7270;49.004;12.066;2023-06-14T06:54:10;1.10;;;1.10;;
14373;SDS011;7270;49.004;12.066;2023-06-14T06:56:36;1.10;;;1.10;;
14373;SDS011;7270;49.004;12.066;2023-06-14T06:59:03;1.30;;;1.20;;
14373;SDS011;7270;49.004;12.066;2023-06-14T07:01:29;1.20;;;1.20;;
14373;SDS011;7270;49.004;12.066;2023-06-14T07:03:58;1.20;;;1.20;;
14373;SDS011;7270;49.004;12.066;2023-06-14T07:06:26;1.10;;;1.10;;
14373;SDS011;7270;49.004;12.066;2023-06-14T07:08:53;1.27;;;1.20;;
14373;SDS011;7270;49.004;12.066;2023-06-14T07:11:19;1.17;;;1.17;;
14373;SDS011;7270;49.004;12.066;2023-06-14T07:13:45;1.17;;;1.17;;
14373;SDS011;7270;49.004;12.066;2023-06-14T07:16:12;1.30;;;1.20;;
14373;SDS011;7270;49.004;12.066;2023-06-14T07:18:38;1.20;;;1.20;;
14373;SDS011;7270;49.004;12.066;2023-06-14T07:21:04;1.40;;;1.30;;
14373;SDS011;7270;49.004;12.066;2023-06-14T07:23:32;1.27;;;1.20;;
14373;SDS011;7270;49.004;12.066;2023-06-14T07:25:58;1.40;;;1.30;;
14373;SDS011;7270;49.004;12.066;2023-06-14T07:28:24;1.10;;;1.10;;
14373;SDS011;7270;49.004;12.066;2023-06-14T07:30:51;1.40;;;1.30;;
14373;SDS011;7270;49.004;12.066;2023-06-14T07:33:17;1.50;;;1.40;;
14373;SDS011;7270;49.004;12.066;2023-06-14T07:35:44;1.60;;;1.50;;
14373;SDS011;7270;49.004;12.066;2023-06-14T07:38:11;1.70;;;1.60;;
14373;SDS011;7270;49.004;12.066;2023-06-14T07:40:38;1.60;;;1.50;;
14373;SDS011;7270;49.004;12.066;2023-06-14T07:43:05;1.50;;;1.40;;
14373;SDS011;7270;49.004;12.066;2023-06-14T07:45:31;1.50;;;1.40;;
14373;SDS011;7270;49.004;12.066;2023-06-14T07:47:57;1.50;;;1.40;;
14373;SDS011;7270;49.004;12.066;2023-06-14T07:50:23;1.50;;;1.40;;
14373;SDS011;7270;49.004;12.066;2023-06-14T07:52:50;1.40;;;1.30;;
14373;SDS011;7270;49.004;12.066;2023-06-14T07:55:16;1.40;;;1.30;;
14373;SDS011;7270;49.004;12.066;2023-06-14T07:57:44;1.47;;;1.37;;
14373;SDS011;7270;49.004;12.066;2023-06-14T08:00:11;1.40;;;1.30;;
14373;SDS011;7270;49.004;12.066;2023-06-14T08:02:40;1.30;;;1.20;;
14373;SDS011;7270;49.004;12.066;2023-06-14T08:05:07;1.50;;;1.40;;
14373;SDS011;7270;49.004;12.066;2023-06-14T08:07:34;1.40;;;1.30;;
14373;SDS011;7270;49.004;12.066;2023-06-14T08:10:00;1.40;;;1.30;;
14373;SDS011;7270;49.004;12.066;2023-06-14T08:12:26;1.40;;;1.30;;
14373;SDS011;7270;49.004;12.066;2023-06-14T08:14:54;1.40;;;1.30;;
14373;SDS011;7270;49.004;12.066;2023-06-14T08:17:20;1.40;;;1.30;;
14373;SDS011;7270;49.004;12.066;2023-06-14T08:19:47;1.40;;;1.30;;
14373;SDS011;7270;49.004;12.066;2023-06-14T08:22:13;1.60;;;1.50;;
14373;SDS011;7270;49.004;12.066;2023-06-14T08:24:39;1.40;;;1.30;;
14373;SDS011;7270;49.004;12.066;2023-06-14T08:27:07;1.60;;;1.50;;
14373;SDS011;7270;49.004;12.066;2023-06-14T08:29:33;1.50;;;1.40;;
14373;SDS011;7270;49.004;12.066;2023-06-14T08:32:01;1.50;;;1.40;;
14373;SDS011;7270;49.004;12.066;2023-06-14T08:34:28;1.70;;;1.60;;
14373;SDS011;7270;49.004;12.066;2023-06-14T08:36:54;16.90;;;16.13;;
14373;SDS011;7270;49.004;12.066;2023-06-14T08:39:20;66.00;;;62.97;;
14373;SDS011;7270;49.004;12.066;2023-06-14T08:41:47;1.90;;;1.80;;
14373;SDS011;7270;49.004;12.066;2023-06-14T08:44:15;2.00;;;1.90;;
14373;SDS011;7270;49.004;12.066;2023-06-14T08:46:41;2.30;;;2.20;;
14373;SDS011;7270;49.004;12.066;2023-06-14T08:49:09;15.43;;;14.73;;
14373;SDS011;7270;49.004;12.066;2023-06-14T08:51:37;15.43;;;14.73;;
14373;SDS011;7270;49.004;12.066;2023-06-14T08:54:05;95.82;;;91.28;;
14373;SDS011;7270;49.004;12.066;2023-06-14T08:56:32;196.23;;;186.93;;
14373;SDS011;7270;49.004;12.066;2023-06-14T08:58:59;194.90;;;186.32;;
14373;SDS011;7270;49.004;12.066;2023-06-14T09:01:28;121.53;;;116.03;;
14373;SDS011;7270;49.004;12.066;2023-06-14T09:03:54;205.63;;;196.27;;
14373;SDS011;7270;49.004;12.066;2023-06-14T09:06:23;225.32;;;215.20;;
14373;SDS011;7270;49.004;12.066;2023-06-14T09:08:50;139.75;;;133.55;;
14373;SDS011;7270;49.004;12.066;2023-06-14T09:11:17;446.65;;;420.88;;
14373;SDS011;7270;49.004;12.066;2023-06-14T09:13:44;592.65;;;553.50;;
14373;SDS011;7270;49.004;12.066;2023-06-14T09:16:10;620.92;;;579.33;;
14373;SDS011;7270;49.004;12.066;2023-06-14T09:18:37;628.72;;;585.90;;
14373;SDS011;7270;49.004;12.066;2023-06-14T09:21:05;667.92;;;617.35;;
14373;SDS011;7270;49.004;12.066;2023-06-14T09:23:34;604.55;;;563.05;;
14373;SDS011;7270;49.004;12.066;2023-06-14T09:26:05;330.98;;;314.27;;
14373;SDS011;7270;49.004;12.066;2023-06-14T09:28:32;219.25;;;209.23;;
14373;SDS011;7270;49.004;12.066;2023-06-14T09:31:00;394.30;;;372.48;;
14373;SDS011;7270;49.004;12.066;2023-06-14T09:33:26;422.00;;;397.23;;
14373;SDS011;7270;49.004;12.066;2023-06-14T09:35:53;281.58;;;268.27;;
14373;SDS011;7270;49.004;12.066;2023-06-14T09:38:20;532.22;;;496.85;;
14373;SDS011;7270;49.004;12.066;2023-06-14T09:40:48;612.55;;;569.28;;
14373;SDS011;7270;49.004;12.066;2023-06-14T09:43:15;681.90;;;623.33;;
14373;SDS011;7270;49.004;12.066;2023-06-14T09:45:41;657.45;;;605.80;;
14373;SDS011;7270;49.004;12.066;2023-06-14T09:48:10;678.75;;;626.15;;
14373;SDS011;7270;49.004;12.066;2023-06-14T09:50:42;2.85;;;2.75;;
14373;SDS011;7270;49.004;12.066;2023-06-14T09:53:10;2.40;;;2.30;;
14373;SDS011;7270;49.004;12.066;2023-06-14T09:55:36;2.20;;;2.10;;
14373;SDS011;7270;49.004;12.066;2023-06-14T09:58:04;483.33;;;450.07;;
14373;SDS011;7270;49.004;12.066;2023-06-14T10:00:31;499.83;;;461.13;;
14373;SDS011;7270;49.004;12.066;2023-06-14T10:03:00;417.17;;;388.17;;
14373;SDS011;7270;49.004;12.066;2023-06-14T10:05:27;402.63;;;375.50;;
14373;SDS011;7270;49.004;12.066;2023-06-14T10:07:56;450.73;;;417.17;;
14373;SDS011;7270;49.004;12.066;2023-06-14T10:10:25;2.50;;;2.40;;
14373;SDS011;7270;49.004;12.066;2023-06-14T10:12:52;2.60;;;2.50;;
14373;SDS011;7270;49.004;12.066;2023-06-14T10:15:20;417.70;;;385.07;;
14373;SDS011;7270;49.004;12.066;2023-06-14T10:17:49;457.90;;;421.57;;
14373;SDS011;7270;49.004;12.066;2023-06-14T10:20:20;494.77;;;452.50;;
14373;SDS011;7270;49.004;12.066;2023-06-14T10:22:49;463.30;;;424.37;;
14373;SDS011;7270;49.004;12.066;2023-06-14T10:25:25;465.73;;;427.03;;
14373;SDS011;7270;49.004;12.066;2023-06-14T10:27:52;422.20;;;387.57;;
14373;SDS011;7270;49.004;12.066;2023-06-14T10:30:20;419.93;;;387.13;;
14373;SDS011;7270;49.004;12.066;2023-06-14T10:33:03;476.27;;;436.50;;
14373;SDS011;7270;49.004;12.066;2023-06-14T10:35:30;1.90;;;1.80;;
14373;SDS011;7270;49.004;12.066;2023-06-14T10:38:03;2.03;;;1.93;;
14373;SDS011;7270;49.004;12.066;2023-06-14T10:40:32;1.83;;;1.73;;
14373;SDS011;7270;49.004;12.066;2023-06-14T10:42:59;2.00;;;1.90;;
14373;SDS011;7270;49.004;12.066;2023-06-14T10:45:26;1.80;;;1.70;;
14373;SDS011;7270;49.004;12.066;2023-06-14T10:47:53;1.70;;;1.60;;
14373;SDS011;7270;49.004;12.066;2023-06-14T10:50:27;1.70;;;1.60;;
14373;SDS011;7270;49.004;12.066;2023-06-14T10:52:53;1.60;;;1.50;;
14373;SDS011;7270;49.004;12.066;2023-06-14T10:55:20;1.60;;;1.50;;
14373;SDS011;7270;49.004;12.066;2023-06-14T10:57:48;222.70;;;211.03;;
14373;SDS011;7270;49.004;12.066;2023-06-14T11:00:17;1.90;;;1.80;;
14373;SDS011;7270;49.004;12.066;2023-06-14T11:05:35;427.00;;;396.47;;
14373;SDS011;7270;49.004;12.066;2023-06-14T11:08:15;2.10;;;2.00;;
14373;SDS011;7270;49.004;12.066;2023-06-14T11:10:44;1.57;;;1.47;;
14373;SDS011;7270;49.004;12.066;2023-06-14T11:13:10;1.60;;;1.50;;
14373;SDS011;7270;49.004;12.066;2023-06-14T11:15:37;1.50;;;1.40;;
14373;SDS011;7270;49.004;12.066;2023-06-14T11:18:05;1.60;;;1.50;;
14373;SDS011;7270;49.004;12.066;2023-06-14T11:20:33;1.60;;;1.50;;
14373;SDS011;7270;49.004;12.066;2023-06-14T11:23:00;1.80;;;1.70;;
14373;SDS011;7270;49.004;12.066;2023-06-14T11:25:26;111.50;;;104.93;;
14373;SDS011;7270;49.004;12.066;2023-06-14T11:27:53;1.90;;;1.80;;
14373;SDS011;7270;49.004;12.066;2023-06-14T11:30:19;1.70;;;1.60;;
14373;SDS011;7270;49.004;12.066;2023-06-14T11:32:46;1.70;;;1.60;;
14373;SDS011;7270;49.004;12.066;2023-06-14T11:35:12;1.60;;;1.50;;
14373;SDS011;7270;49.004;12.066;2023-06-14T11:37:40;1.80;;;1.70;;
14373;SDS011;7270;49.004;12.066;2023-06-14T11:40:07;2.07;;;1.97;;
14373;SDS011;7270;49.004;12.066;2023-06-14T11:42:35;2.30;;;2.20;;
14373;SDS011;7270;49.004;12.066;2023-06-14T11:45:01;2.30;;;2.20;;
14373;SDS011;7270;49.004;12.066;2023-06-14T11:47:31;2.30;;;2.20;;
14373;SDS011;7270;49.004;12.066;2023-06-14T11:49:58;2.15;;;2.05;;
14373;SDS011;7270;49.004;12.066;2023-06-14T11:52:24;2.08;;;1.98;;
14373;SDS011;7270;49.004;12.066;2023-06-14T11:54:52;1.80;;;1.70;;
14373;SDS011;7270;49.004;12.066;2023-06-14T11:57:21;1.70;;;1.60;;
14373;SDS011;7270;49.004;12.066;2023-06-14T11:59:48;1.70;;;1.60;;
14373;SDS011;7270;49.004;12.066;2023-06-14T12:02:14;1.60;;;1.50;;
14373;SDS011;7270;49.004;12.066;2023-06-14T12:04:41;1.60;;;1.50;;
14373;SDS011;7270;49.004;12.066;2023-06-14T12:07:11;1.60;;;1.50;;
14373;SDS011;7270;49.004;12.066;2023-06-14T12:09:40;1.70;;;1.60;;
14373;SDS011;7270;49.004;12.066;2023-06-14T12:12:13;1.60;;;1.50;;
14373;SDS011;7270;49.004;12.066;2023-06-14T12:14:41;1.60;;;1.50;;
14373;SDS011;7270;49.004;12.066;2023-06-14T12:17:07;1.60;;;1.50;;
14373;SDS011;7270;49.004;12.066;2023-06-14T12:19:41;1.60;;;1.50;;
14373;SDS011;7270;49.004;12.066;2023-06-14T12:22:09;1.60;;;1.50;;
14373;SDS011;7270;49.004;12.066;2023-06-14T12:24:35;1.60;;;1.50;;
14373;SDS011;7270;49.004;12.066;2023-06-14T12:27:02;1.60;;;1.50;;
14373;SDS011;7270;49.004;12.066;2023-06-14T12:29:30;201.93;;;191.23;;
14373;SDS011;7270;49.004;12.066;2023-06-14T12:31:57;8.33;;;7.90;;
14373;SDS011;7270;49.004;12.066;2023-06-14T12:34:24;1.60;;;1.50;;
14373;SDS011;7270;49.004;12.066;2023-06-14T12:36:51;1.50;;;1.40;;
14373;SDS011;7270;49.004;12.066;2023-06-14T12:39:18;1.50;;;1.40;;
14373;SDS011;7270;49.004;12.066;2023-06-14T12:41:44;1.60;;;1.50;;
14373;SDS011;7270;49.004;12.066;2023-06-14T12:44:11;1.50;;;1.40;;
14373;SDS011;7270;49.004;12.066;2023-06-14T12:46:39;1.57;;;1.47;;
14373;SDS011;7270;49.004;12.066;2023-06-14T12:49:07;2.20;;;2.10;;
14373;SDS011;7270;49.004;12.066;2023-06-14T12:51:34;1.20;;;1.20;;
14373;SDS011;7270;49.004;12.066;2023-06-14T12:54:00;1.40;;;1.30;;
14373;SDS011;7270;49.004;12.066;2023-06-14T12:56:27;1.40;;;1.30;;
14373;SDS011;7270;49.004;12.066;2023-06-14T12:58:54;1.30;;;1.20;;
14373;SDS011;7270;49.004;12.066;2023-06-14T13:01:20;2.07;;;1.97;;
14373;SDS011;7270;49.004;12.066;2023-06-14T13:03:48;1.73;;;1.63;;
14373;SDS011;7270;49.004;12.066;2023-06-14T13:06:16;1.53;;;1.43;;
14373;SDS011;7270;49.004;12.066;2023-06-14T13:08:43;1.50;;;1.40;;
14373;SDS011;7270;49.004;12.066;2023-06-14T13:11:09;1.30;;;1.20;;
14373;SDS011;7270;49.004;12.066;2023-06-14T13:13:35;1.50;;;1.40;;
14373;SDS011;7270;49.004;12.066;2023-06-14T13:16:02;1.40;;;1.30;;
14373;SDS011;7270;49.004;12.066;2023-06-14T13:18:28;1.30;;;1.20;;
14373;SDS011;7270;49.004;12.066;2023-06-14T13:20:56;1.30;;;1.20;;
14373;SDS011;7270;49.004;12.066;2023-06-14T13:23:22;1.40;;;1.30;;
14373;SDS011;7270;49.004;12.066;2023-06-14T13:25:49;1.30;;;1.20;;
14373;SDS011;7270;49.004;12.066;2023-06-14T13:28:16;1.40;;;1.30;;
14373;SDS011;7270;49.004;12.066;2023-06-14T13:30:42;1.40;;;1.30;;
14373;SDS011;7270;49.004;12.066;2023-06-14T13:33:09;1.30;;;1.30;;
14373;SDS011;7270;49.004;12.066;2023-06-14T13:35:35;1.33;;;1.23;;
14373;SDS011;7270;49.004;12.066;2023-06-14T13:38:03;1.50;;;1.40;;
14373;SDS011;7270;49.004;12.066;2023-06-14T13:40:29;1.40;;;1.30;;
14373;SDS011;7270;49.004;12.066;2023-06-14T13:42:55;1.50;;;1.40;;
14373;SDS011;7270;49.004;12.066;2023-06-14T13:45:22;2.03;;;1.93;;
14373;SDS011;7270;49.004;12.066;2023-06-14T13:47:48;1.80;;;1.70;;
14373;SDS011;7270;49.004;12.066;2023-06-14T13:50:14;1.80;;;1.70;;
14373;SDS011;7270;49.004;12.066;2023-06-14T13:52:41;1.80;;;1.70;;
14373;SDS011;7270;49.004;12.066;2023-06-14T13:55:09;1.73;;;1.63;;
14373;SDS011;7270;49.004;12.066;2023-06-14T13:57:35;1.70;;;1.60;;
14373;SDS011;7270;49.004;12.066;2023-06-14T14:00:02;1.80;;;1.70;;
14373;SDS011;7270;49.004;12.066;2023-06-14T14:02:29;1.73;;;1.63;;
14373;SDS011;7270;49.004;12.066;2023-06-14T14:04:55;1.70;;;1.60;;
14373;SDS011;7270;49.004;12.066;2023-06-14T14:07:22;1.80;;;1.70;;
14373;SDS011;7270;49.004;12.066;2023-06-14T14:09:48;1.70;;;1.60;;
14373;SDS011;7270;49.004;12.066;2023-06-14T14:12:16;1.90;;;1.80;;
14373;SDS011;7270;49.004;12.066;2023-06-14T14:14:43;1.90;;;1.80;;
14373;SDS011;7270;49.004;12.066;2023-06-14T14:17:09;1.80;;;1.70;;
14373;SDS011;7270;49.004;12.066;2023-06-14T14:19:36;1.90;;;1.80;;
14373;SDS011;7270;49.004;12.066;2023-06-14T14:22:02;1.80;;;1.70;;
14373;SDS011;7270;49.004;12.066;2023-06-14T14:24:28;1.80;;;1.70;;
14373;SDS011;7270;49.004;12.066;2023-06-14T14:26:55;2.10;;;2.00;;
14373;SDS011;7270;49.004;12.066;2023-06-14T14:29:26;1.80;;;1.70;;
14373;SDS011;7270;49.004;12.066;2023-06-14T14:31:54;2.00;;;1.90;;
14373;SDS011;7270;49.004;12.066;2023-06-14T14:34:20;1.90;;;1.80;;
14373;SDS011;7270;49.004;12.066;2023-06-14T14:36:46;1.80;;;1.70;;
14373;SDS011;7270;49.004;12.066;2023-06-14T14:39:13;2.27;;;2.17;;
14373;SDS011;7270;49.004;12.066;2023-06-14T14:41:40;1.90;;;1.80;;
14373;SDS011;7270;49.004;12.066;2023-06-14T14:44:06;1.90;;;1.80;;
14373;SDS011;7270;49.004;12.066;2023-06-14T14:46:34;1.70;;;1.60;;